sensor_id;sensor_type;location;lat;lon;timestamp;P1;durP1;ratioP1;P2;durP2;ratioP2
17987;SDS011;9119;50.932;5.342;2023-07-28T00:01:51;3.40;;;1.80;;
17987;SDS011;9119;50.932;5.342;2023-07-28T00:04:17;3.63;;;2.50;;
17987;SDS011;9119;50.932;5.342;2023-07-28T00:06:42;2.87;;;2.53;;
17987;SDS011;9119;50.932;5.342;2023-07-28T00:09:08;2.57;;;1.60;;
17987;SDS011;9119;50.932;5.342;2023-07-28T00:11:33;6.03;;;3.37;;
17987;SDS011;9119;50.932;5.342;2023-07-28T00:13:59;4.63;;;2.53;;
17987;SDS011;9119;50.932;5.342;2023-07-28T00:16:25;4.53;;;3.13;;
17987;SDS011;9119;50.932;5.342;2023-07-28T00:18:50;3.93;;;2.20;;
17987;SDS011;9119;50.932;5.342;2023-07-28T00:21:16;9.43;;;2.17;;
17987;SDS011;9119;50.932;5.342;2023-07-28T00:23:42;5.77;;;2.33;;
17987;SDS011;9119;50.932;5.342;2023-07-28T00:26:07;3.70;;;1.97;;
17987;SDS011;9119;50.932;5.342;2023-07-28T00:28:33;3.30;;;2.00;;
17987;SDS011;9119;50.932;5.342;2023-07-28T00:30:59;4.50;;;2.20;;
17987;SDS011;9119;50.932;5.342;2023-07-28T00:33:24;4.00;;;2.40;;
17987;SDS011;9119;50.932;5.342;2023-07-28T00:35:50;3.30;;;2.07;;
17987;SDS011;9119;50.932;5.342;2023-07-28T00:38:16;9.17;;;5.40;;
17987;SDS011;9119;50.932;5.342;2023-07-28T00:40:41;6.33;;;2.90;;
17987;SDS011;9119;50.932;5.342;2023-07-28T00:43:07;6.70;;;2.80;;
17987;SDS011;9119;50.932;5.342;2023-07-28T00:45:33;10.80;;;2.73;;
17987;SDS011;9119;50.932;5.342;2023-07-28T00:47:59;5.07;;;2.17;;
17987;SDS011;9119;50.932;5.342;2023-07-28T00:50:26;4.63;;;2.50;;
17987;SDS011;9119;50.932;5.342;2023-07-28T00:52:52;4.57;;;2.40;;
17987;SDS011;9119;50.932;5.342;2023-07-28T00:55:18;8.80;;;2.60;;
17987;SDS011;9119;50.932;5.342;2023-07-28T00:57:44;3.40;;;2.70;;
17987;SDS011;9119;50.932;5.342;2023-07-28T01:00:10;6.17;;;3.00;;
17987;SDS011;9119;50.932;5.342;2023-07-28T01:02:37;4.20;;;2.40;;
17987;SDS011;9119;50.932;5.342;2023-07-28T01:05:03;5.13;;;2.70;;
17987;SDS011;9119;50.932;5.342;2023-07-28T01:07:30;4.30;;;2.63;;
17987;SDS011;9119;50.932;5.342;2023-07-28T01:10:17;3.73;;;2.47;;
17987;SDS011;9119;50.932;5.342;2023-07-28T01:12:49;5.23;;;2.80;;
17987;SDS011;9119;50.932;5.342;2023-07-28T01:15:15;4.40;;;2.83;;
17987;SDS011;9119;50.932;5.342;2023-07-28T01:17:41;4.67;;;2.80;;
17987;SDS011;9119;50.932;5.342;2023-07-28T01:20:07;7.20;;;3.20;;
17987;SDS011;9119;50.932;5.342;2023-07-28T01:25:22;7.73;;;2.77;;
17987;SDS011;9119;50.932;5.342;2023-07-28T01:28:11;3.73;;;2.60;;
17987;SDS011;9119;50.932;5.342;2023-07-28T01:30:38;3.93;;;2.47;;
17987;SDS011;9119;50.932;5.342;2023-07-28T01:33:07;9.30;;;2.80;;
17987;SDS011;9119;50.932;5.342;2023-07-28T01:35:34;4.97;;;2.63;;
17987;SDS011;9119;50.932;5.342;2023-07-28T01:38:03;6.90;;;3.30;;
17987;SDS011;9119;50.932;5.342;2023-07-28T01:40:29;5.20;;;3.07;;
17987;SDS011;9119;50.932;5.342;2023-07-28T01:42:55;5.93;;;2.90;;
17987;SDS011;9119;50.932;5.342;2023-07-28T01:45:21;6.80;;;2.77;;
17987;SDS011;9119;50.932;5.342;2023-07-28T01:47:46;4.60;;;2.40;;
17987;SDS011;9119;50.932;5.342;2023-07-28T01:50:12;3.13;;;2.33;;
17987;SDS011;9119;50.932;5.342;2023-07-28T01:52:38;4.20;;;2.50;;
17987;SDS011;9119;50.932;5.342;2023-07-28T01:55:03;3.00;;;2.50;;
17987;SDS011;9119;50.932;5.342;2023-07-28T01:57:32;4.10;;;1.97;;
17987;SDS011;9119;50.932;5.342;2023-07-28T01:59:58;4.30;;;2.40;;
17987;SDS011;9119;50.932;5.342;2023-07-28T02:02:24;3.57;;;1.83;;
17987;SDS011;9119;50.932;5.342;2023-07-28T02:04:49;3.97;;;2.30;;
17987;SDS011;9119;50.932;5.342;2023-07-28T02:07:15;2.63;;;2.00;;
17987;SDS011;9119;50.932;5.342;2023-07-28T02:09:41;4.23;;;2.33;;
17987;SDS011;9119;50.932;5.342;2023-07-28T02:12:07;5.57;;;2.20;;
17987;SDS011;9119;50.932;5.342;2023-07-28T02:14:33;5.70;;;2.43;;
17987;SDS011;9119;50.932;5.342;2023-07-28T02:16:58;5.63;;;2.67;;
17987;SDS011;9119;50.932;5.342;2023-07-28T02:19:25;5.90;;;2.57;;
17987;SDS011;9119;50.932;5.342;2023-07-28T02:21:50;2.97;;;2.43;;
17987;SDS011;9119;50.932;5.342;2023-07-28T02:24:16;4.03;;;2.83;;
17987;SDS011;9119;50.932;5.342;2023-07-28T02:26:42;6.50;;;3.20;;
17987;SDS011;9119;50.932;5.342;2023-07-28T02:29:07;3.73;;;2.60;;
17987;SDS011;9119;50.932;5.342;2023-07-28T02:31:33;11.10;;;3.50;;
17987;SDS011;9119;50.932;5.342;2023-07-28T02:33:59;4.60;;;2.90;;
17987;SDS011;9119;50.932;5.342;2023-07-28T02:36:25;5.47;;;3.20;;
17987;SDS011;9119;50.932;5.342;2023-07-28T02:38:51;3.83;;;2.57;;
17987;SDS011;9119;50.932;5.342;2023-07-28T02:41:16;4.73;;;2.77;;
17987;SDS011;9119;50.932;5.342;2023-07-28T02:43:42;3.60;;;2.70;;
17987;SDS011;9119;50.932;5.342;2023-07-28T02:46:08;5.40;;;3.03;;
17987;SDS011;9119;50.932;5.342;2023-07-28T02:48:33;7.80;;;2.93;;
17987;SDS011;9119;50.932;5.342;2023-07-28T02:50:59;5.27;;;3.13;;
17987;SDS011;9119;50.932;5.342;2023-07-28T02:53:25;5.43;;;3.43;;
17987;SDS011;9119;50.932;5.342;2023-07-28T02:55:50;4.47;;;3.17;;
17987;SDS011;9119;50.932;5.342;2023-07-28T02:58:16;8.17;;;3.90;;
17987;SDS011;9119;50.932;5.342;2023-07-28T03:00:42;5.93;;;3.30;;
17987;SDS011;9119;50.932;5.342;2023-07-28T03:03:10;5.63;;;3.23;;
17987;SDS011;9119;50.932;5.342;2023-07-28T03:05:36;6.67;;;3.50;;
17987;SDS011;9119;50.932;5.342;2023-07-28T03:08:03;11.37;;;3.77;;
17987;SDS011;9119;50.932;5.342;2023-07-28T03:10:30;6.27;;;4.13;;
17987;SDS011;9119;50.932;5.342;2023-07-28T03:12:55;13.17;;;3.80;;
17987;SDS011;9119;50.932;5.342;2023-07-28T03:15:21;6.07;;;4.00;;
17987;SDS011;9119;50.932;5.342;2023-07-28T03:17:48;9.60;;;4.77;;
17987;SDS011;9119;50.932;5.342;2023-07-28T03:20:14;7.33;;;4.60;;
17987;SDS011;9119;50.932;5.342;2023-07-28T03:22:39;11.40;;;4.67;;
17987;SDS011;9119;50.932;5.342;2023-07-28T03:25:05;10.90;;;5.03;;
17987;SDS011;9119;50.932;5.342;2023-07-28T03:27:31;7.60;;;4.30;;
17987;SDS011;9119;50.932;5.342;2023-07-28T03:29:56;9.50;;;5.00;;
17987;SDS011;9119;50.932;5.342;2023-07-28T03:32:22;8.40;;;5.10;;
17987;SDS011;9119;50.932;5.342;2023-07-28T03:34:48;10.43;;;5.00;;
17987;SDS011;9119;50.932;5.342;2023-07-28T03:37:14;10.73;;;5.13;;
17987;SDS011;9119;50.932;5.342;2023-07-28T03:39:39;9.83;;;5.70;;
17987;SDS011;9119;50.932;5.342;2023-07-28T03:42:05;12.87;;;6.50;;
17987;SDS011;9119;50.932;5.342;2023-07-28T03:44:31;16.47;;;6.47;;
17987;SDS011;9119;50.932;5.342;2023-07-28T03:46:57;13.93;;;6.77;;
17987;SDS011;9119;50.932;5.342;2023-07-28T03:49:22;14.90;;;6.37;;
17987;SDS011;9119;50.932;5.342;2023-07-28T03:51:48;13.37;;;7.27;;
17987;SDS011;9119;50.932;5.342;2023-07-28T03:54:14;14.73;;;7.13;;
17987;SDS011;9119;50.932;5.342;2023-07-28T03:56:39;11.60;;;6.50;;
17987;SDS011;9119;50.932;5.342;2023-07-28T03:59:05;14.87;;;7.07;;
17987;SDS011;9119;50.932;5.342;2023-07-28T04:01:31;17.10;;;7.73;;
17987;SDS011;9119;50.932;5.342;2023-07-28T04:03:56;14.37;;;7.50;;
17987;SDS011;9119;50.932;5.342;2023-07-28T04:06:39;13.83;;;7.10;;
17987;SDS011;9119;50.932;5.342;2023-07-28T04:09:06;18.40;;;7.17;;
17987;SDS011;9119;50.932;5.342;2023-07-28T04:11:33;16.57;;;8.63;;
17987;SDS011;9119;50.932;5.342;2023-07-28T04:13:58;14.03;;;7.83;;
17987;SDS011;9119;50.932;5.342;2023-07-28T04:16:24;17.67;;;7.30;;
17987;SDS011;9119;50.932;5.342;2023-07-28T04:18:50;18.07;;;7.27;;
17987;SDS011;9119;50.932;5.342;2023-07-28T04:21:15;18.00;;;7.20;;
17987;SDS011;9119;50.932;5.342;2023-07-28T04:23:41;12.17;;;7.40;;
17987;SDS011;9119;50.932;5.342;2023-07-28T04:26:07;13.47;;;7.23;;
17987;SDS011;9119;50.932;5.342;2023-07-28T04:28:32;13.20;;;6.73;;
17987;SDS011;9119;50.932;5.342;2023-07-28T04:30:58;11.87;;;6.73;;
17987;SDS011;9119;50.932;5.342;2023-07-28T04:33:23;14.43;;;7.37;;
17987;SDS011;9119;50.932;5.342;2023-07-28T04:35:50;14.37;;;6.93;;
17987;SDS011;9119;50.932;5.342;2023-07-28T04:38:15;11.13;;;6.77;;
17987;SDS011;9119;50.932;5.342;2023-07-28T04:40:42;13.90;;;6.67;;
17987;SDS011;9119;50.932;5.342;2023-07-28T04:43:07;12.33;;;6.50;;
17987;SDS011;9119;50.932;5.342;2023-07-28T04:45:33;12.07;;;6.17;;
17987;SDS011;9119;50.932;5.342;2023-07-28T04:47:59;8.07;;;5.90;;
17987;SDS011;9119;50.932;5.342;2023-07-28T04:50:24;9.90;;;5.83;;
17987;SDS011;9119;50.932;5.342;2023-07-28T04:52:50;10.40;;;6.07;;
17987;SDS011;9119;50.932;5.342;2023-07-28T04:55:16;7.53;;;5.50;;
17987;SDS011;9119;50.932;5.342;2023-07-28T04:57:41;10.27;;;5.87;;
17987;SDS011;9119;50.932;5.342;2023-07-28T05:00:07;14.27;;;5.77;;
17987;SDS011;9119;50.932;5.342;2023-07-28T05:02:33;9.83;;;5.30;;
17987;SDS011;9119;50.932;5.342;2023-07-28T05:04:59;11.33;;;5.23;;
17987;SDS011;9119;50.932;5.342;2023-07-28T05:07:25;9.63;;;4.90;;
17987;SDS011;9119;50.932;5.342;2023-07-28T05:09:50;8.90;;;4.37;;
17987;SDS011;9119;50.932;5.342;2023-07-28T05:12:17;11.17;;;4.70;;
17987;SDS011;9119;50.932;5.342;2023-07-28T05:14:42;9.83;;;4.20;;
17987;SDS011;9119;50.932;5.342;2023-07-28T05:17:08;7.70;;;4.03;;
17987;SDS011;9119;50.932;5.342;2023-07-28T05:19:34;8.37;;;3.90;;
17987;SDS011;9119;50.932;5.342;2023-07-28T05:22:00;6.33;;;4.10;;
17987;SDS011;9119;50.932;5.342;2023-07-28T05:24:25;5.53;;;4.00;;
17987;SDS011;9119;50.932;5.342;2023-07-28T05:26:51;8.83;;;3.93;;
17987;SDS011;9119;50.932;5.342;2023-07-28T05:29:17;6.47;;;3.90;;
17987;SDS011;9119;50.932;5.342;2023-07-28T05:31:42;7.07;;;4.03;;
17987;SDS011;9119;50.932;5.342;2023-07-28T05:34:08;10.40;;;4.07;;
17987;SDS011;9119;50.932;5.342;2023-07-28T05:36:34;10.53;;;3.73;;
17987;SDS011;9119;50.932;5.342;2023-07-28T05:39:00;7.90;;;3.73;;
17987;SDS011;9119;50.932;5.342;2023-07-28T05:41:26;9.07;;;3.60;;
17987;SDS011;9119;50.932;5.342;2023-07-28T05:43:53;6.53;;;3.70;;
17987;SDS011;9119;50.932;5.342;2023-07-28T05:46:18;8.87;;;3.40;;
17987;SDS011;9119;50.932;5.342;2023-07-28T05:48:44;9.23;;;3.13;;
17987;SDS011;9119;50.932;5.342;2023-07-28T05:51:09;5.93;;;3.10;;
17987;SDS011;9119;50.932;5.342;2023-07-28T05:53:35;7.60;;;3.40;;
17987;SDS011;9119;50.932;5.342;2023-07-28T05:56:01;5.90;;;3.10;;
17987;SDS011;9119;50.932;5.342;2023-07-28T05:58:27;6.07;;;3.43;;
17987;SDS011;9119;50.932;5.342;2023-07-28T06:00:53;5.77;;;2.70;;
17987;SDS011;9119;50.932;5.342;2023-07-28T06:03:18;5.63;;;2.93;;
17987;SDS011;9119;50.932;5.342;2023-07-28T06:05:44;6.43;;;3.00;;
17987;SDS011;9119;50.932;5.342;2023-07-28T06:08:09;7.83;;;2.80;;
17987;SDS011;9119;50.932;5.342;2023-07-28T06:10:36;6.77;;;3.30;;
17987;SDS011;9119;50.932;5.342;2023-07-28T06:13:02;6.17;;;2.77;;
17987;SDS011;9119;50.932;5.342;2023-07-28T06:15:28;7.47;;;2.80;;
17987;SDS011;9119;50.932;5.342;2023-07-28T06:17:54;7.10;;;2.87;;
17987;SDS011;9119;50.932;5.342;2023-07-28T06:20:19;4.73;;;2.80;;
17987;SDS011;9119;50.932;5.342;2023-07-28T06:22:45;5.20;;;2.87;;
17987;SDS011;9119;50.932;5.342;2023-07-28T06:25:11;4.73;;;2.93;;
17987;SDS011;9119;50.932;5.342;2023-07-28T06:27:36;6.20;;;2.90;;
17987;SDS011;9119;50.932;5.342;2023-07-28T06:30:03;7.73;;;2.97;;
17987;SDS011;9119;50.932;5.342;2023-07-28T06:32:30;3.93;;;2.60;;
17987;SDS011;9119;50.932;5.342;2023-07-28T06:34:56;3.17;;;2.50;;
17987;SDS011;9119;50.932;5.342;2023-07-28T06:37:22;5.80;;;2.57;;
17987;SDS011;9119;50.932;5.342;2023-07-28T06:39:48;5.77;;;2.30;;
17987;SDS011;9119;50.932;5.342;2023-07-28T06:42:14;6.93;;;2.57;;
17987;SDS011;9119;50.932;5.342;2023-07-28T06:44:41;5.20;;;2.27;;
17987;SDS011;9119;50.932;5.342;2023-07-28T06:47:07;7.33;;;2.50;;
17987;SDS011;9119;50.932;5.342;2023-07-28T06:49:33;4.83;;;2.13;;
17987;SDS011;9119;50.932;5.342;2023-07-28T06:51:58;3.77;;;2.10;;
17987;SDS011;9119;50.932;5.342;2023-07-28T06:54:24;7.67;;;2.20;;
17987;SDS011;9119;50.932;5.342;2023-07-28T06:56:50;2.83;;;1.80;;
17987;SDS011;9119;50.932;5.342;2023-07-28T06:59:16;3.80;;;1.90;;
17987;SDS011;9119;50.932;5.342;2023-07-28T07:01:41;6.07;;;3.10;;
17987;SDS011;9119;50.932;5.342;2023-07-28T07:04:07;5.47;;;2.20;;
17987;SDS011;9119;50.932;5.342;2023-07-28T07:06:32;2.17;;;1.93;;
17987;SDS011;9119;50.932;5.342;2023-07-28T07:08:58;3.33;;;2.00;;
17987;SDS011;9119;50.932;5.342;2023-07-28T07:11:24;4.63;;;1.67;;
17987;SDS011;9119;50.932;5.342;2023-07-28T07:13:49;2.73;;;1.47;;
17987;SDS011;9119;50.932;5.342;2023-07-28T07:16:15;6.47;;;1.70;;
17987;SDS011;9119;50.932;5.342;2023-07-28T07:18:42;2.63;;;1.50;;
17987;SDS011;9119;50.932;5.342;2023-07-28T07:21:08;3.97;;;1.50;;
17987;SDS011;9119;50.932;5.342;2023-07-28T07:23:35;4.63;;;1.27;;
17987;SDS011;9119;50.932;5.342;2023-07-28T07:26:01;2.97;;;1.43;;
17987;SDS011;9119;50.932;5.342;2023-07-28T07:28:27;2.77;;;1.40;;
17987;SDS011;9119;50.932;5.342;2023-07-28T07:30:53;4.93;;;1.20;;
17987;SDS011;9119;50.932;5.342;2023-07-28T07:33:23;4.40;;;1.70;;
17987;SDS011;9119;50.932;5.342;2023-07-28T07:35:49;3.03;;;1.50;;
17987;SDS011;9119;50.932;5.342;2023-07-28T07:38:15;2.40;;;1.30;;
17987;SDS011;9119;50.932;5.342;2023-07-28T07:40:40;3.83;;;1.50;;
17987;SDS011;9119;50.932;5.342;2023-07-28T07:43:06;4.90;;;2.60;;
17987;SDS011;9119;50.932;5.342;2023-07-28T07:45:32;2.43;;;1.50;;
17987;SDS011;9119;50.932;5.342;2023-07-28T07:47:58;2.40;;;1.63;;
17987;SDS011;9119;50.932;5.342;2023-07-28T07:50:24;2.90;;;1.37;;
17987;SDS011;9119;50.932;5.342;2023-07-28T07:52:50;2.83;;;1.40;;
17987;SDS011;9119;50.932;5.342;2023-07-28T07:55:16;2.00;;;1.37;;
17987;SDS011;9119;50.932;5.342;2023-07-28T07:57:41;2.37;;;1.30;;
17987;SDS011;9119;50.932;5.342;2023-07-28T08:00:07;3.37;;;1.37;;
17987;SDS011;9119;50.932;5.342;2023-07-28T08:02:34;6.60;;;2.07;;
17987;SDS011;9119;50.932;5.342;2023-07-28T08:05:00;4.87;;;1.20;;
17987;SDS011;9119;50.932;5.342;2023-07-28T08:07:26;4.67;;;1.40;;
17987;SDS011;9119;50.932;5.342;2023-07-28T08:09:52;2.10;;;1.60;;
17987;SDS011;9119;50.932;5.342;2023-07-28T08:12:18;5.20;;;1.33;;
17987;SDS011;9119;50.932;5.342;2023-07-28T08:14:43;1.87;;;1.40;;
17987;SDS011;9119;50.932;5.342;2023-07-28T08:17:11;2.37;;;1.63;;
17987;SDS011;9119;50.932;5.342;2023-07-28T08:19:37;3.53;;;1.37;;
17987;SDS011;9119;50.932;5.342;2023-07-28T08:22:02;3.73;;;1.50;;
17987;SDS011;9119;50.932;5.342;2023-07-28T08:24:28;4.20;;;1.40;;
17987;SDS011;9119;50.932;5.342;2023-07-28T08:26:55;2.37;;;1.23;;
17987;SDS011;9119;50.932;5.342;2023-07-28T08:29:20;3.00;;;1.40;;
17987;SDS011;9119;50.932;5.342;2023-07-28T08:31:46;1.70;;;1.13;;
17987;SDS011;9119;50.932;5.342;2023-07-28T08:34:12;4.33;;;1.40;;
17987;SDS011;9119;50.932;5.342;2023-07-28T08:36:38;3.13;;;1.00;;
17987;SDS011;9119;50.932;5.342;2023-07-28T08:39:04;3.53;;;1.00;;
17987;SDS011;9119;50.932;5.342;2023-07-28T08:41:30;5.33;;;1.30;;
17987;SDS011;9119;50.932;5.342;2023-07-28T08:43:56;3.53;;;1.40;;
17987;SDS011;9119;50.932;5.342;2023-07-28T08:46:22;1.90;;;1.40;;
17987;SDS011;9119;50.932;5.342;2023-07-28T08:48:48;1.73;;;1.50;;
17987;SDS011;9119;50.932;5.342;2023-07-28T08:51:14;3.23;;;1.30;;
17987;SDS011;9119;50.932;5.342;2023-07-28T08:53:40;2.70;;;1.70;;
17987;SDS011;9119;50.932;5.342;2023-07-28T08:56:06;4.30;;;1.70;;
17987;SDS011;9119;50.932;5.342;2023-07-28T08:58:32;4.30;;;1.60;;
17987;SDS011;9119;50.932;5.342;2023-07-28T09:00:58;1.17;;;1.03;;
17987;SDS011;9119;50.932;5.342;2023-07-28T09:03:26;2.47;;;1.30;;
17987;SDS011;9119;50.932;5.342;2023-07-28T09:05:53;4.10;;;1.20;;
17987;SDS011;9119;50.932;5.342;2023-07-28T09:08:26;3.57;;;1.70;;
17987;SDS011;9119;50.932;5.342;2023-07-28T09:10:52;2.30;;;1.50;;
17987;SDS011;9119;50.932;5.342;2023-07-28T09:13:19;2.70;;;1.40;;
17987;SDS011;9119;50.932;5.342;2023-07-28T09:15:45;2.10;;;1.50;;
17987;SDS011;9119;50.932;5.342;2023-07-28T09:18:12;5.40;;;1.57;;
17987;SDS011;9119;50.932;5.342;2023-07-28T09:20:41;2.27;;;1.10;;
17987;SDS011;9119;50.932;5.342;2023-07-28T09:23:08;4.30;;;1.30;;
17987;SDS011;9119;50.932;5.342;2023-07-28T09:25:35;3.00;;;1.20;;
17987;SDS011;9119;50.932;5.342;2023-07-28T09:28:01;1.80;;;1.20;;
17987;SDS011;9119;50.932;5.342;2023-07-28T09:30:41;1.73;;;1.10;;
17987;SDS011;9119;50.932;5.342;2023-07-28T09:33:28;2.27;;;1.60;;
17987;SDS011;9119;50.932;5.342;2023-07-28T09:36:04;5.57;;;1.57;;
17987;SDS011;9119;50.932;5.342;2023-07-28T09:38:32;4.50;;;1.40;;
17987;SDS011;9119;50.932;5.342;2023-07-28T09:41:03;3.13;;;1.40;;
17987;SDS011;9119;50.932;5.342;2023-07-28T09:43:32;2.03;;;1.37;;
17987;SDS011;9119;50.932;5.342;2023-07-28T09:45:58;3.23;;;1.30;;
17987;SDS011;9119;50.932;5.342;2023-07-28T09:48:25;2.60;;;1.60;;
17987;SDS011;9119;50.932;5.342;2023-07-28T09:50:55;3.07;;;1.60;;
17987;SDS011;9119;50.932;5.342;2023-07-28T09:53:23;2.17;;;1.60;;
17987;SDS011;9119;50.932;5.342;2023-07-28T09:55:52;5.50;;;1.93;;
17987;SDS011;9119;50.932;5.342;2023-07-28T09:58:18;4.27;;;1.73;;
17987;SDS011;9119;50.932;5.342;2023-07-28T10:00:47;2.63;;;1.57;;
17987;SDS011;9119;50.932;5.342;2023-07-28T10:03:13;3.43;;;1.50;;
17987;SDS011;9119;50.932;5.342;2023-07-28T10:05:40;1.63;;;1.50;;
17987;SDS011;9119;50.932;5.342;2023-07-28T10:08:06;1.90;;;1.53;;
17987;SDS011;9119;50.932;5.342;2023-07-28T10:10:33;1.77;;;1.47;;
17987;SDS011;9119;50.932;5.342;2023-07-28T10:12:59;6.67;;;1.83;;
17987;SDS011;9119;50.932;5.342;2023-07-28T10:15:28;4.17;;;1.90;;
17987;SDS011;9119;50.932;5.342;2023-07-28T10:17:56;4.37;;;1.80;;
17987;SDS011;9119;50.932;5.342;2023-07-28T10:20:28;3.23;;;1.80;;
17987;SDS011;9119;50.932;5.342;2023-07-28T10:23:07;3.53;;;2.13;;
17987;SDS011;9119;50.932;5.342;2023-07-28T10:25:36;4.27;;;2.60;;
17987;SDS011;9119;50.932;5.342;2023-07-28T10:28:03;3.50;;;2.20;;
17987;SDS011;9119;50.932;5.342;2023-07-28T10:30:37;4.33;;;3.13;;
17987;SDS011;9119;50.932;5.342;2023-07-28T10:35:59;4.20;;;2.10;;
17987;SDS011;9119;50.932;5.342;2023-07-28T10:38:47;3.33;;;2.30;;
17987;SDS011;9119;50.932;5.342;2023-07-28T10:41:25;2.60;;;2.00;;
17987;SDS011;9119;50.932;5.342;2023-07-28T10:43:51;3.60;;;2.10;;
17987;SDS011;9119;50.932;5.342;2023-07-28T10:46:18;4.23;;;1.73;;
17987;SDS011;9119;50.932;5.342;2023-07-28T10:48:47;4.37;;;2.17;;
17987;SDS011;9119;50.932;5.342;2023-07-28T10:51:24;2.53;;;1.57;;
17987;SDS011;9119;50.932;5.342;2023-07-28T10:53:56;2.60;;;1.67;;
17987;SDS011;9119;50.932;5.342;2023-07-28T10:56:25;2.40;;;1.60;;
17987;SDS011;9119;50.932;5.342;2023-07-28T10:59:01;2.30;;;1.93;;
17987;SDS011;9119;50.932;5.342;2023-07-28T11:01:32;3.30;;;1.73;;
17987;SDS011;9119;50.932;5.342;2023-07-28T11:04:05;1.80;;;1.57;;
17987;SDS011;9119;50.932;5.342;2023-07-28T11:06:41;2.40;;;1.90;;
17987;SDS011;9119;50.932;5.342;2023-07-28T11:09:08;5.70;;;2.87;;
17987;SDS011;9119;50.932;5.342;2023-07-28T11:11:35;3.33;;;1.67;;
17987;SDS011;9119;50.932;5.342;2023-07-28T11:14:03;3.20;;;1.80;;
17987;SDS011;9119;50.932;5.342;2023-07-28T11:16:32;2.17;;;1.63;;
17987;SDS011;9119;50.932;5.342;2023-07-28T11:19:03;4.27;;;1.90;;
17987;SDS011;9119;50.932;5.342;2023-07-28T11:21:36;2.13;;;1.70;;
17987;SDS011;9119;50.932;5.342;2023-07-28T11:24:03;3.70;;;2.30;;
17987;SDS011;9119;50.932;5.342;2023-07-28T11:26:29;3.97;;;1.77;;
17987;SDS011;9119;50.932;5.342;2023-07-28T11:28:55;2.37;;;1.67;;
17987;SDS011;9119;50.932;5.342;2023-07-28T11:31:24;3.80;;;2.40;;
17987;SDS011;9119;50.932;5.342;2023-07-28T11:33:51;5.43;;;2.07;;
17987;SDS011;9119;50.932;5.342;2023-07-28T11:36:24;2.20;;;1.87;;
17987;SDS011;9119;50.932;5.342;2023-07-28T11:38:54;4.50;;;2.43;;
17987;SDS011;9119;50.932;5.342;2023-07-28T11:41:22;4.73;;;1.70;;
17987;SDS011;9119;50.932;5.342;2023-07-28T11:43:48;4.73;;;2.23;;
17987;SDS011;9119;50.932;5.342;2023-07-28T11:49:11;3.43;;;1.60;;
17987;SDS011;9119;50.932;5.342;2023-07-28T11:51:38;6.73;;;4.80;;
17987;SDS011;9119;50.932;5.342;2023-07-28T11:54:05;2.83;;;1.50;;
17987;SDS011;9119;50.932;5.342;2023-07-28T11:56:32;4.23;;;1.40;;
17987;SDS011;9119;50.932;5.342;2023-07-28T11:58:57;1.47;;;1.00;;
17987;SDS011;9119;50.932;5.342;2023-07-28T12:01:23;1.97;;;1.10;;
17987;SDS011;9119;50.932;5.342;2023-07-28T12:03:49;3.30;;;1.43;;
17987;SDS011;9119;50.932;5.342;2023-07-28T12:06:15;1.20;;;1.00;;
17987;SDS011;9119;50.932;5.342;2023-07-28T12:08:40;3.07;;;1.20;;
17987;SDS011;9119;50.932;5.342;2023-07-28T12:11:11;1.10;;;1.00;;
17987;SDS011;9119;50.932;5.342;2023-07-28T12:13:49;1.00;;;1.00;;
17987;SDS011;9119;50.932;5.342;2023-07-28T12:16:31;2.27;;;1.40;;
17987;SDS011;9119;50.932;5.342;2023-07-28T12:18:59;2.57;;;0.97;;
17987;SDS011;9119;50.932;5.342;2023-07-28T12:21:25;2.70;;;1.43;;
17987;SDS011;9119;50.932;5.342;2023-07-28T12:23:50;0.97;;;0.83;;
17987;SDS011;9119;50.932;5.342;2023-07-28T12:26:16;1.17;;;0.90;;
17987;SDS011;9119;50.932;5.342;2023-07-28T12:28:42;0.90;;;0.90;;
17987;SDS011;9119;50.932;5.342;2023-07-28T12:31:08;1.57;;;1.40;;
17987;SDS011;9119;50.932;5.342;2023-07-28T12:33:33;1.10;;;1.00;;
17987;SDS011;9119;50.932;5.342;2023-07-28T12:35:59;1.23;;;1.00;;
17987;SDS011;9119;50.932;5.342;2023-07-28T12:38:25;2.67;;;1.00;;
17987;SDS011;9119;50.932;5.342;2023-07-28T12:40:50;1.67;;;1.00;;
17987;SDS011;9119;50.932;5.342;2023-07-28T12:43:17;1.27;;;1.07;;
17987;SDS011;9119;50.932;5.342;2023-07-28T12:45:42;1.67;;;1.20;;
17987;SDS011;9119;50.932;5.342;2023-07-28T12:48:08;1.43;;;1.00;;
17987;SDS011;9119;50.932;5.342;2023-07-28T12:50:34;2.20;;;1.50;;
17987;SDS011;9119;50.932;5.342;2023-07-28T12:53:00;0.80;;;0.80;;
17987;SDS011;9119;50.932;5.342;2023-07-28T12:55:25;3.47;;;1.30;;
17987;SDS011;9119;50.932;5.342;2023-07-28T12:57:52;2.13;;;1.10;;
17987;SDS011;9119;50.932;5.342;2023-07-28T13:00:18;2.20;;;1.40;;
17987;SDS011;9119;50.932;5.342;2023-07-28T13:02:44;3.20;;;1.30;;
17987;SDS011;9119;50.932;5.342;2023-07-28T13:05:10;2.03;;;1.20;;
17987;SDS011;9119;50.932;5.342;2023-07-28T13:07:37;2.30;;;0.90;;
17987;SDS011;9119;50.932;5.342;2023-07-28T13:10:03;1.00;;;0.90;;
17987;SDS011;9119;50.932;5.342;2023-07-28T13:12:31;2.33;;;0.80;;
17987;SDS011;9119;50.932;5.342;2023-07-28T13:14:56;1.70;;;1.20;;
17987;SDS011;9119;50.932;5.342;2023-07-28T13:17:22;1.70;;;1.03;;
17987;SDS011;9119;50.932;5.342;2023-07-28T13:19:48;1.10;;;1.00;;
17987;SDS011;9119;50.932;5.342;2023-07-28T13:22:13;5.17;;;1.10;;
17987;SDS011;9119;50.932;5.342;2023-07-28T13:24:39;1.50;;;0.93;;
17987;SDS011;9119;50.932;5.342;2023-07-28T13:27:06;2.87;;;1.23;;
17987;SDS011;9119;50.932;5.342;2023-07-28T13:29:31;2.30;;;1.43;;
17987;SDS011;9119;50.932;5.342;2023-07-28T13:31:58;1.37;;;1.20;;
17987;SDS011;9119;50.932;5.342;2023-07-28T13:34:27;11.00;;;7.00;;
17987;SDS011;9119;50.932;5.342;2023-07-28T13:36:53;2.20;;;1.60;;
17987;SDS011;9119;50.932;5.342;2023-07-28T13:39:20;4.33;;;1.50;;
17987;SDS011;9119;50.932;5.342;2023-07-28T13:41:46;3.43;;;2.00;;
17987;SDS011;9119;50.932;5.342;2023-07-28T13:44:12;2.10;;;1.57;;
17987;SDS011;9119;50.932;5.342;2023-07-28T13:46:38;2.80;;;1.40;;
17987;SDS011;9119;50.932;5.342;2023-07-28T13:49:03;3.87;;;1.40;;
17987;SDS011;9119;50.932;5.342;2023-07-28T13:51:29;1.43;;;1.30;;
17987;SDS011;9119;50.932;5.342;2023-07-28T13:53:55;1.23;;;0.90;;
17987;SDS011;9119;50.932;5.342;2023-07-28T13:56:20;1.53;;;1.10;;
17987;SDS011;9119;50.932;5.342;2023-07-28T13:58:46;1.27;;;0.93;;
17987;SDS011;9119;50.932;5.342;2023-07-28T14:01:12;3.03;;;1.13;;
17987;SDS011;9119;50.932;5.342;2023-07-28T14:03:37;9.23;;;1.80;;
17987;SDS011;9119;50.932;5.342;2023-07-28T14:06:03;2.90;;;1.27;;
17987;SDS011;9119;50.932;5.342;2023-07-28T14:08:29;2.97;;;0.97;;
17987;SDS011;9119;50.932;5.342;2023-07-28T14:10:55;4.38;;;1.13;;
17987;SDS011;9119;50.932;5.342;2023-07-28T14:13:21;1.23;;;1.10;;
17987;SDS011;9119;50.932;5.342;2023-07-28T14:15:47;1.53;;;1.00;;
17987;SDS011;9119;50.932;5.342;2023-07-28T14:18:12;2.43;;;1.10;;
17987;SDS011;9119;50.932;5.342;2023-07-28T14:20:38;1.63;;;1.25;;
17987;SDS011;9119;50.932;5.342;2023-07-28T14:23:20;4.03;;;1.40;;
17987;SDS011;9119;50.932;5.342;2023-07-28T14:25:47;2.27;;;1.30;;
17987;SDS011;9119;50.932;5.342;2023-07-28T14:28:13;1.57;;;1.37;;
17987;SDS011;9119;50.932;5.342;2023-07-28T14:30:38;2.93;;;1.10;;
17987;SDS011;9119;50.932;5.342;2023-07-28T14:33:04;4.53;;;1.20;;
17987;SDS011;9119;50.932;5.342;2023-07-28T14:35:30;4.23;;;1.50;;
17987;SDS011;9119;50.932;5.342;2023-07-28T14:37:55;1.43;;;1.10;;
17987;SDS011;9119;50.932;5.342;2023-07-28T14:40:21;4.60;;;1.13;;
17987;SDS011;9119;50.932;5.342;2023-07-28T14:42:46;1.77;;;1.10;;
17987;SDS011;9119;50.932;5.342;2023-07-28T14:45:12;1.67;;;1.10;;
17987;SDS011;9119;50.932;5.342;2023-07-28T14:47:38;6.90;;;1.60;;
17987;SDS011;9119;50.932;5.342;2023-07-28T14:50:03;2.83;;;1.23;;
17987;SDS011;9119;50.932;5.342;2023-07-28T14:52:29;8.03;;;1.97;;
17987;SDS011;9119;50.932;5.342;2023-07-28T14:54:55;7.70;;;1.77;;
17987;SDS011;9119;50.932;5.342;2023-07-28T14:57:20;3.90;;;2.10;;
17987;SDS011;9119;50.932;5.342;2023-07-28T14:59:46;4.77;;;1.93;;
17987;SDS011;9119;50.932;5.342;2023-07-28T15:02:12;2.27;;;1.47;;
17987;SDS011;9119;50.932;5.342;2023-07-28T15:04:38;4.37;;;2.17;;
17987;SDS011;9119;50.932;5.342;2023-07-28T15:07:04;4.93;;;1.93;;